createdAt,value
2018-04-23T10:30:33.952Z,4.13
2018-04-23T10:31:06.864Z,5.53
2018-04-23T10:31:39.727Z,5.73
2018-04-23T10:32:12.536Z,5.03
2018-04-23T10:32:45.360Z,4.93
2018-04-23T10:33:18.233Z,6.53
2018-04-23T10:33:51.110Z,4.77
2018-04-23T10:34:24.033Z,4.33
2018-04-23T10:34:56.845Z,4.30
2018-04-23T10:35:30.307Z,5.10
2018-04-23T10:36:03.314Z,5.97
2018-04-23T10:36:36.286Z,6.57
2018-04-23T10:37:09.084Z,4.73
2018-04-23T10:37:41.924Z,4.50
2018-04-23T10:38:14.797Z,5.00
2018-04-23T10:38:47.659Z,5.03
2018-04-23T10:39:20.547Z,4.93
2018-04-23T10:39:53.396Z,5.07
2018-04-23T10:40:26.265Z,5.63
2018-04-23T10:40:59.243Z,5.47
2018-04-23T10:41:32.124Z,4.57
2018-04-23T10:42:04.988Z,4.83
2018-04-23T10:42:37.964Z,7.73
2018-04-23T10:43:11.472Z,4.30
2018-04-23T10:43:44.316Z,4.80
2018-04-23T10:44:17.249Z,6.90
2018-04-23T10:44:50.411Z,5.00
2018-04-23T10:45:23.254Z,5.87
2018-04-23T10:45:56.113Z,5.90
2018-04-23T10:46:28.932Z,4.63
2018-04-23T10:47:01.852Z,5.90
2018-04-23T10:47:34.665Z,5.10
2018-04-23T10:48:07.453Z,5.30
2018-04-23T10:48:40.749Z,5.50
2018-04-23T10:49:13.645Z,6.30
2018-04-23T10:49:46.619Z,6.07
2018-04-23T10:50:19.485Z,5.10
2018-04-23T10:50:52.363Z,9.83
2018-04-23T10:51:26.050Z,5.77
2018-04-23T10:51:58.933Z,5.30
2018-04-23T10:52:31.748Z,5.10
2018-04-23T10:53:04.534Z,5.23
2018-04-23T10:53:37.327Z,4.67
2018-04-23T10:54:10.241Z,5.03
2018-04-23T10:54:43.085Z,5.17
2018-04-23T10:55:15.964Z,5.10
2018-04-23T10:55:48.813Z,4.87
2018-04-23T10:56:21.612Z,6.00
2018-04-23T10:56:54.657Z,5.03
2018-04-23T10:57:27.750Z,5.23
2018-04-23T10:58:00.697Z,6.07
2018-04-23T10:58:33.576Z,5.10
2018-04-23T10:59:06.380Z,5.33
2018-04-23T10:59:39.238Z,5.47
2018-04-23T11:00:12.052Z,5.10
2018-04-23T11:00:44.848Z,4.90
2018-04-23T11:01:17.720Z,5.33
2018-04-23T11:01:50.715Z,4.93
2018-04-23T11:02:23.528Z,7.47
2018-04-23T11:28:24.836Z,6.43
2018-04-23T11:28:57.689Z,8.00
2018-04-23T11:29:30.528Z,9.80
2018-04-23T11:30:10.350Z,7.30
2018-04-23T11:30:43.221Z,5.43
2018-04-23T11:31:16.166Z,7.57
2018-04-23T11:31:49.482Z,7.72
2018-04-23T11:32:25.166Z,4.82
2018-04-23T11:33:56.235Z,5.37
2018-04-23T11:35:52.784Z,7.43
2018-04-23T11:42:17.657Z,7.70
2018-04-23T11:42:48.960Z,5.95
2018-04-23T11:43:21.387Z,6.72
2018-04-23T11:43:52.613Z,6.10
2018-04-23T11:44:23.916Z,8.88
2018-04-23T11:44:58.335Z,6.53
2018-04-23T11:45:29.559Z,5.70
2018-04-23T11:46:00.831Z,7.50
2018-04-23T11:46:32.058Z,8.02
2018-04-23T11:47:03.309Z,5.03
2018-04-23T11:47:34.531Z,6.50
2018-04-23T11:48:05.765Z,7.22
2018-04-23T11:49:13.715Z,6.43
2018-04-23T11:49:44.929Z,4.80
2018-04-23T11:50:16.239Z,968.47
2018-04-23T11:50:47.482Z,1722.95
2018-04-23T11:51:18.746Z,14.85
2018-04-23T11:51:49.962Z,8.43
2018-04-23T11:52:21.419Z,6.37
2018-04-23T11:52:52.742Z,16.42
2018-04-23T11:53:23.983Z,6.82
2018-04-23T11:53:55.266Z,6.10
2018-04-23T11:54:47.794Z,7.95
2018-04-23T11:57:57.822Z,5.75
2018-04-23T11:58:29.097Z,6.70
2018-04-23T11:59:00.322Z,4.10
2018-04-23T12:00:11.514Z,4.93
2018-04-23T12:00:42.746Z,5.32
2018-04-23T12:01:13.996Z,5.30
2018-04-23T12:01:45.213Z,3.92
2018-04-23T12:02:16.441Z,6.72
2018-04-23T12:02:48.745Z,4.40
2018-04-23T12:03:19.957Z,4.43
2018-04-23T12:03:51.164Z,3.80
2018-04-23T12:04:22.457Z,4.22
2018-04-23T12:04:53.684Z,22.42
2018-04-23T12:05:24.964Z,325.27
2018-04-23T12:05:56.768Z,1975.37
2018-04-23T12:06:28.005Z,1999.90
2018-04-23T12:06:59.372Z,761.83
2018-04-23T12:07:30.613Z,1999.90
2018-04-23T12:08:01.875Z,1999.90
2018-04-23T12:08:33.096Z,41.22
2018-04-23T12:09:04.329Z,8.70
2018-04-23T12:10:04.444Z,7.55
2018-04-23T12:10:35.661Z,6.20
2018-04-23T12:11:06.878Z,4.85
2018-04-23T12:11:38.117Z,4.83
2018-04-23T12:12:09.334Z,5.93
2018-04-23T12:12:40.546Z,4.62
2018-04-23T12:13:11.757Z,5.85
2018-04-23T12:13:42.979Z,5.40
2018-04-23T12:14:14.189Z,4.95
2018-04-23T12:14:45.424Z,3.50
2018-04-23T12:15:16.680Z,3.70
2018-04-23T12:16:25.811Z,4.62
2018-04-23T12:16:57.027Z,6.90
2018-04-23T12:17:29.978Z,8.12
2018-04-23T12:20:37.497Z,6.14
2018-04-23T13:33:02.423Z,9.93
2018-04-23T13:33:33.678Z,3.40
2018-04-23T13:34:06.930Z,52.17
2018-04-23T13:34:38.253Z,5.40
2018-04-23T13:35:10.261Z,4.58
2018-04-23T13:35:41.512Z,5.33
2018-04-23T13:36:12.749Z,4.20
2018-04-23T13:36:44.032Z,3.10
2018-04-23T13:37:15.265Z,6.07
2018-04-23T13:37:46.484Z,4.68
2018-04-23T13:38:17.730Z,3.43
2018-04-23T13:38:50.160Z,2.92
2018-04-23T13:39:21.409Z,4.32
2018-04-23T13:39:52.702Z,4.50
2018-04-23T13:40:23.938Z,4.97
2018-04-23T13:40:55.171Z,6.75
2018-04-23T13:41:27.660Z,3.22
2018-04-23T13:42:04.363Z,4.36
2018-04-23T14:04:12.911Z,4.37
2018-04-23T14:04:44.394Z,5.00
2018-04-23T14:05:15.658Z,5.90
2018-04-23T14:05:51.449Z,3.34
2018-04-23T14:10:12.255Z,3.51
2018-04-23T14:10:43.686Z,3.08
2018-04-23T14:11:16.542Z,3.92
2018-04-23T14:12:55.018Z,3.47
2018-04-23T14:13:34.780Z,3.75
2018-04-23T14:14:06.049Z,5.03
2018-04-23T14:14:39.422Z,3.80
2018-04-23T14:15:45.233Z,3.70
2018-04-23T14:16:17.785Z,3.30
2018-04-23T14:16:50.258Z,8.75
2018-04-23T14:18:11.914Z,4.68
2018-04-23T14:18:43.199Z,4.40
2018-04-23T14:19:14.563Z,4.20
2018-04-23T14:19:46.090Z,4.40
2018-04-23T14:21:11.718Z,3.70
2018-04-23T14:22:32.571Z,3.65
2018-04-23T14:23:43.719Z,4.05
2018-04-23T14:24:15.045Z,4.53
2018-04-23T14:24:46.340Z,5.10
2018-04-23T14:25:20.647Z,4.62
2018-04-23T14:25:52.779Z,3.15
2018-04-23T14:26:24.171Z,3.45
2018-04-23T14:26:59.020Z,3.95
2018-04-23T14:27:31.515Z,3.50
2018-04-23T14:28:02.899Z,5.28
2018-04-23T14:28:35.333Z,4.25
2018-04-23T14:30:33.264Z,5.23
2018-04-23T14:31:04.628Z,5.43
2018-04-23T14:31:41.101Z,4.10
2018-04-23T14:32:12.454Z,4.40
2018-04-23T14:32:43.886Z,4.80
2018-04-23T14:33:15.561Z,4.25
2018-04-23T14:33:56.469Z,3.83
2018-04-23T14:34:27.868Z,3.35
2018-04-23T14:35:00.524Z,3.97
2018-04-23T14:36:10.500Z,4.07
2018-04-23T14:36:43.090Z,5.10
2018-04-23T14:37:22.174Z,4.75
2018-04-23T14:37:53.511Z,5.32
2018-04-23T14:38:25.821Z,3.62
2018-04-23T14:41:51.039Z,4.93
2018-04-23T14:42:22.474Z,5.22
2018-04-23T14:42:53.805Z,4.28
2018-04-23T14:43:25.146Z,4.55
2018-04-23T14:44:00.393Z,3.37
2018-04-23T14:44:31.729Z,7.93
2018-04-23T14:45:07.224Z,5.45
2018-04-23T14:45:39.386Z,3.90
2018-04-23T14:46:11.815Z,5.95
2018-04-23T14:46:43.247Z,7.05
2018-04-23T14:47:14.644Z,7.57
2018-04-23T14:47:46.178Z,4.70
2018-04-23T14:48:17.527Z,5.53
2018-04-23T14:49:32.591Z,4.57
2018-04-23T14:50:05.554Z,6.22
2018-04-23T14:50:36.927Z,3.70
2018-04-23T14:51:11.922Z,4.53
2018-04-23T14:51:43.317Z,4.70
2018-04-23T14:52:16.802Z,4.12
2018-04-23T14:52:52.986Z,3.20
2018-04-23T14:53:27.501Z,4.25
2018-04-23T14:53:59.841Z,4.90
2018-04-23T14:54:57.131Z,3.85
2018-04-23T14:55:28.570Z,4.12
2018-04-23T14:56:00.035Z,4.53
2018-04-23T14:56:35.361Z,4.45
2018-04-23T15:00:00.652Z,4.78
2018-04-23T15:00:38.504Z,3.85
2018-04-23T15:01:11.069Z,5.18
2018-04-23T15:01:46.026Z,3.97
2018-04-23T15:02:32.822Z,6.80
2018-04-23T15:03:05.288Z,3.42
2018-04-23T15:03:36.606Z,3.15
2018-04-23T15:04:12.485Z,3.05
2018-04-23T15:04:44.674Z,3.30
2018-04-23T15:08:10.601Z,4.75
2018-04-23T15:08:42.771Z,3.67
2018-04-23T15:09:14.252Z,3.85
2018-04-23T15:09:45.598Z,5.72
2018-04-23T15:10:16.927Z,4.68
2018-04-23T15:10:51.288Z,3.67
2018-04-23T15:11:25.030Z,6.43
2018-04-23T15:11:57.532Z,5.62
2018-04-23T15:12:28.873Z,3.10
2018-04-23T15:13:01.231Z,5.60
2018-04-23T15:13:32.580Z,3.67
2018-04-23T15:14:04.927Z,3.90
2018-04-23T15:14:55.765Z,5.15
2018-04-23T15:15:27.095Z,5.68
2018-04-23T15:15:58.475Z,4.50
2018-04-23T15:16:29.760Z,7.18
2018-04-23T15:17:01.044Z,5.25
2018-04-23T15:17:32.329Z,4.10
2018-04-23T15:18:03.591Z,4.78
2018-04-23T15:18:34.856Z,5.72
2018-04-23T15:19:06.157Z,4.78
2018-04-23T15:19:37.369Z,9.45
2018-04-23T15:20:08.612Z,5.32
2018-04-23T15:20:39.829Z,4.80
2018-04-23T15:21:11.037Z,6.12
2018-04-23T15:21:42.267Z,5.10
2018-04-23T15:22:14.691Z,3.90
2018-04-23T15:22:45.916Z,5.37
2018-04-23T15:23:17.142Z,5.75
2018-04-23T15:23:48.370Z,4.22
2018-04-23T15:24:19.629Z,6.15
2018-04-23T15:24:50.848Z,4.03
2018-04-23T15:25:22.061Z,5.10
2018-04-23T15:25:53.376Z,4.72
2018-04-23T15:26:24.626Z,5.45
2018-04-23T15:26:55.847Z,7.93
2018-04-23T15:27:27.108Z,3.72
2018-04-23T15:27:58.317Z,3.85
2018-04-23T15:28:29.523Z,7.55
2018-04-23T15:29:00.729Z,4.10
2018-04-23T15:29:31.933Z,3.72
2018-04-23T15:30:03.155Z,5.15
2018-04-23T15:30:34.358Z,6.40
2018-04-23T15:31:05.634Z,3.92
2018-04-23T15:31:36.849Z,5.72
2018-04-23T15:32:08.048Z,5.60
2018-04-23T15:32:39.305Z,4.35
2018-04-23T15:33:10.512Z,4.70
2018-04-23T15:33:41.717Z,4.55
2018-04-23T15:34:12.923Z,5.97
2018-04-23T15:34:44.133Z,3.50
2018-04-23T15:35:15.390Z,4.35
2018-04-23T15:35:46.620Z,4.43
2018-04-23T15:36:17.883Z,7.07
2018-04-23T15:36:49.187Z,5.45
2018-04-23T15:37:20.399Z,5.00
2018-04-23T15:37:51.602Z,4.28
2018-04-23T15:38:22.840Z,5.20
2018-04-23T15:38:54.065Z,6.85
2018-04-23T15:39:25.333Z,4.65
2018-04-23T15:39:56.588Z,5.30
2018-04-23T15:40:27.789Z,7.30
2018-04-23T15:40:58.997Z,3.53
2018-04-23T15:41:30.228Z,6.78
2018-04-23T15:42:01.493Z,6.00
2018-04-23T15:42:32.717Z,5.05
2018-04-23T15:43:03.929Z,4.43
2018-04-23T15:43:35.248Z,4.18
2018-04-23T15:44:06.480Z,4.97
2018-04-23T15:44:37.705Z,6.00
2018-04-23T15:45:08.912Z,3.28
2018-04-23T15:45:40.118Z,5.87
2018-04-23T15:46:11.409Z,5.45
2018-04-23T15:46:42.664Z,5.90
2018-04-23T15:47:13.965Z,4.72
2018-04-23T15:47:45.170Z,5.50
2018-04-23T15:48:16.416Z,6.60
2018-04-23T15:48:47.694Z,5.95
2018-04-23T15:49:18.973Z,9.35
2018-04-23T15:49:50.205Z,4.22
2018-04-23T15:50:21.490Z,5.80
2018-04-23T15:50:52.712Z,6.47
2018-04-23T15:51:23.978Z,4.70
2018-04-23T15:51:55.184Z,4.87
2018-04-23T15:52:26.469Z,7.35
2018-04-23T15:52:57.704Z,6.87
2018-04-23T15:53:28.916Z,4.68
2018-04-23T15:54:00.185Z,4.22
2018-04-23T15:54:31.399Z,7.43
2018-04-23T15:55:02.612Z,4.60
2018-04-23T15:55:33.845Z,4.37
2018-04-23T15:56:05.093Z,6.03
2018-04-23T15:56:36.338Z,4.18
2018-04-23T15:57:07.696Z,4.82
2018-04-23T15:57:38.905Z,5.57
2018-04-23T15:58:10.137Z,9.45
2018-04-23T15:58:46.198Z,6.30
2018-04-23T15:59:17.592Z,7.87
2018-04-23T15:59:49.315Z,7.62
2018-04-23T16:00:20.537Z,8.25
2018-04-23T16:00:51.767Z,4.90
2018-04-23T16:01:22.985Z,5.32
2018-04-23T16:01:54.187Z,8.30
2018-04-23T16:02:25.396Z,4.93
2018-04-23T16:02:56.634Z,4.20
2018-04-23T16:03:27.833Z,6.00
2018-04-23T16:03:59.082Z,5.78
2018-04-23T16:04:30.365Z,6.30
2018-04-23T16:05:01.591Z,7.07
2018-04-23T16:05:32.817Z,7.18
2018-04-23T16:06:04.041Z,5.40
2018-04-23T16:06:36.230Z,5.03
2018-04-23T16:07:07.462Z,4.60
2018-04-23T16:07:39.639Z,8.20
2018-04-23T16:08:10.895Z,7.85
2018-04-23T16:08:42.155Z,6.80
2018-04-23T16:09:13.356Z,6.65
2018-04-23T16:09:44.619Z,5.80
2018-04-23T16:10:15.903Z,4.75
2018-04-23T16:10:47.169Z,6.37
2018-04-23T16:11:18.390Z,6.78
2018-04-23T16:11:49.599Z,6.80
2018-04-23T16:12:20.836Z,6.37
2018-04-23T16:12:52.044Z,5.62
2018-04-23T16:13:23.875Z,7.43
2018-04-23T16:13:55.140Z,5.25
2018-04-23T16:14:26.365Z,6.10
2018-04-23T16:14:57.569Z,5.25
2018-04-23T16:15:28.783Z,7.78
2018-04-23T16:15:59.996Z,7.93
2018-04-23T16:16:31.270Z,8.45
2018-04-23T16:17:02.568Z,12.10
2018-04-23T16:17:33.776Z,6.43
2018-04-23T16:18:04.976Z,8.18
2018-04-23T16:18:36.187Z,6.95
2018-04-23T16:19:07.440Z,8.23
2018-04-23T16:19:38.686Z,6.72
2018-04-23T16:20:10.054Z,7.10
2018-04-23T16:20:41.269Z,6.28
2018-04-23T16:21:12.473Z,7.70
2018-04-23T16:21:44.805Z,7.03
2018-04-23T16:22:16.085Z,10.77
2018-04-23T16:22:47.308Z,6.65
2018-04-23T16:23:18.581Z,7.93
2018-04-23T16:23:49.790Z,7.37
2018-04-23T16:24:21.001Z,7.47
2018-04-23T16:24:52.204Z,7.45
2018-04-23T16:25:24.047Z,7.65
2018-04-23T16:25:55.264Z,9.75
2018-04-23T16:26:26.898Z,6.57
2018-04-23T16:26:58.104Z,13.13
2018-04-23T16:27:29.339Z,7.05
2018-04-23T16:28:00.573Z,8.32
2018-04-23T16:28:31.825Z,8.65
2018-04-23T16:29:04.009Z,8.00
2018-04-23T16:29:35.253Z,8.90
2018-04-23T16:30:06.544Z,8.25
2018-04-23T16:30:37.728Z,7.60
2018-04-23T16:31:08.973Z,5.87
2018-04-23T16:31:40.184Z,6.43
2018-04-23T16:32:11.449Z,9.55
2018-04-23T16:32:42.692Z,7.43
2018-04-23T16:33:13.924Z,10.02
2018-04-23T16:33:45.165Z,7.82
2018-04-23T16:34:16.393Z,5.03
2018-04-23T16:34:47.601Z,5.80
2018-04-23T16:35:18.804Z,8.77
2018-04-23T16:35:50.025Z,6.35
2018-04-23T16:36:21.264Z,6.00
2018-04-23T16:36:52.472Z,7.53
2018-04-23T16:37:23.721Z,8.20
2018-04-23T16:37:54.914Z,7.93
2018-04-23T16:38:26.125Z,6.87
2018-04-23T16:38:57.346Z,6.57
2018-04-23T16:39:28.600Z,6.73
2018-04-23T16:39:59.842Z,6.25
2018-04-23T16:40:31.061Z,7.10
2018-04-23T16:41:02.298Z,6.83
2018-04-23T16:41:33.586Z,5.85
2018-04-23T16:42:04.816Z,5.78
2018-04-23T16:42:36.030Z,6.30
2018-04-23T16:43:07.253Z,5.60
2018-04-23T16:43:38.509Z,6.00
2018-04-23T16:44:09.774Z,5.93
2018-04-23T16:44:41.018Z,7.62
2018-04-23T16:45:12.258Z,7.40
2018-04-23T16:45:43.465Z,8.25
2018-04-23T16:46:14.673Z,6.57
2018-04-23T16:46:45.894Z,8.00
2018-04-23T16:47:17.134Z,9.82
2018-04-23T16:47:48.352Z,7.87
2018-04-23T16:48:19.721Z,8.27
2018-04-23T16:48:51.055Z,8.48
2018-04-23T16:49:22.831Z,5.35
2018-04-23T16:49:54.041Z,6.50
2018-04-23T16:50:25.253Z,7.40
2018-04-23T16:50:57.757Z,6.00
2018-04-23T16:51:29.038Z,7.85
2018-04-23T16:52:00.281Z,11.77
2018-04-23T16:52:31.501Z,6.20
2018-04-23T16:53:02.713Z,7.37
2018-04-23T16:53:33.925Z,9.37
2018-04-23T16:54:05.154Z,10.13
2018-04-23T16:54:37.032Z,10.63
2018-04-23T16:55:08.325Z,6.17
2018-04-23T16:55:39.620Z,7.77
2018-04-23T16:56:10.877Z,6.13
2018-04-23T16:56:42.192Z,7.53
2018-04-23T16:57:13.435Z,6.43
2018-04-23T16:57:44.652Z,9.60
2018-04-23T16:58:15.858Z,6.72
2018-04-23T16:58:47.067Z,5.17
2018-04-23T16:59:18.273Z,7.33
2018-04-23T16:59:50.515Z,6.93
2018-04-23T17:00:21.753Z,7.83
2018-04-23T17:00:52.988Z,6.97
2018-04-23T17:01:24.212Z,5.57
2018-04-23T17:01:55.430Z,7.30
2018-04-23T17:02:26.688Z,5.73
2018-04-23T17:02:57.874Z,11.30
2018-04-23T17:03:29.117Z,6.97
2018-04-23T17:04:00.381Z,10.50
2018-04-23T17:04:32.264Z,6.23
2018-04-23T17:05:03.497Z,11.27
2018-04-23T17:05:35.813Z,9.83
2018-04-23T17:06:07.070Z,5.83
2018-04-23T17:06:38.351Z,9.53
2018-04-23T17:07:09.585Z,6.77
2018-04-23T17:07:42.566Z,6.33
2018-04-23T17:08:13.788Z,8.50
2018-04-23T17:08:45.011Z,10.40
2018-04-23T17:09:16.281Z,6.73
2018-04-23T17:09:47.536Z,7.87
2018-04-23T17:10:18.734Z,8.27
2018-04-23T17:10:49.977Z,6.73
2018-04-23T17:11:21.189Z,8.13
2018-04-23T17:11:52.427Z,7.93
2018-04-23T17:12:23.671Z,7.37
2018-04-23T17:12:55.022Z,6.33
2018-04-23T17:13:26.394Z,8.63
2018-04-23T17:13:57.650Z,7.67
2018-04-23T17:14:28.881Z,7.10
2018-04-23T17:15:00.100Z,8.10
2018-04-23T17:15:31.298Z,6.67
2018-04-23T17:16:02.517Z,7.70
2018-04-23T17:16:33.763Z,9.13
2018-04-23T17:17:04.974Z,9.20
2018-04-23T17:17:36.570Z,6.27
2018-04-23T17:18:07.784Z,11.23
2018-04-23T17:18:39.001Z,8.57
2018-04-23T17:19:10.223Z,8.47
2018-04-23T17:19:41.783Z,8.67
2018-04-23T17:20:12.999Z,12.30
2018-04-23T17:20:44.216Z,10.27
2018-04-23T17:21:15.468Z,9.20
2018-04-23T17:21:47.390Z,7.70
2018-04-23T17:22:18.652Z,8.73
2018-04-23T17:22:49.889Z,11.17
2018-04-23T17:23:21.105Z,10.87
2018-04-23T17:23:52.318Z,8.13
2018-04-23T17:24:23.565Z,9.53
2018-04-23T17:24:54.788Z,8.13
2018-04-23T17:25:25.993Z,8.93
2018-04-23T17:25:57.222Z,12.97
2018-04-23T17:26:28.438Z,8.87
2018-04-23T17:26:59.666Z,9.10
2018-04-23T17:27:30.932Z,9.60
2018-04-23T17:28:02.162Z,9.93
2018-04-23T17:28:36.150Z,8.20
2018-04-23T17:29:08.261Z,12.00
2018-04-23T17:29:39.468Z,10.23
2018-04-23T17:30:10.692Z,11.47
2018-04-23T17:30:41.906Z,8.93
2018-04-23T17:31:13.146Z,9.50
2018-04-23T17:31:44.345Z,10.17
2018-04-23T17:32:15.552Z,10.17
2018-04-23T17:32:46.792Z,13.83
2018-04-23T17:33:18.001Z,8.33
2018-04-23T17:33:49.270Z,13.03
2018-04-23T17:34:20.536Z,9.17
2018-04-23T17:34:51.745Z,12.37
2018-04-23T17:35:22.969Z,8.43
2018-04-23T17:35:54.177Z,8.60
2018-04-23T17:36:25.400Z,7.97
2018-04-23T17:36:56.613Z,8.30
2018-04-23T17:37:27.838Z,11.40
2018-04-23T17:37:59.065Z,10.20
2018-04-23T17:38:30.288Z,9.43
2018-04-23T17:39:01.510Z,11.73
2018-04-23T17:39:32.797Z,10.73
2018-04-23T17:40:04.038Z,13.13
2018-04-23T17:40:35.268Z,9.30
2018-04-23T17:41:06.499Z,11.63
2018-04-23T17:41:37.779Z,11.63
2018-04-23T17:42:08.996Z,10.10
2018-04-23T17:42:40.196Z,14.50
2018-04-23T17:43:11.401Z,7.63
2018-04-23T17:43:42.613Z,8.63
2018-04-23T17:44:13.827Z,7.67
2018-04-23T17:44:45.075Z,9.10
2018-04-23T17:45:16.280Z,8.77
2018-04-23T17:45:47.484Z,11.20
2018-04-23T17:46:18.749Z,10.77
2018-04-23T17:46:49.981Z,10.83
2018-04-23T17:47:21.166Z,9.57
2018-04-23T17:47:52.413Z,12.90
2018-04-23T17:48:23.645Z,12.77
2018-04-23T17:48:54.887Z,11.57
2018-04-23T17:49:26.098Z,8.97
2018-04-23T17:49:57.354Z,10.43
2018-04-23T17:50:28.592Z,11.57
2018-04-23T17:50:59.832Z,10.00
2018-04-23T17:51:31.053Z,9.10
2018-04-23T17:52:02.271Z,13.03
2018-04-23T17:52:33.494Z,8.57
2018-04-23T17:53:04.721Z,8.27
2018-04-23T17:53:35.947Z,10.37
2018-04-23T17:54:07.260Z,13.23
2018-04-23T17:54:38.515Z,10.53
2018-04-23T17:55:09.733Z,7.67
2018-04-23T17:55:40.966Z,10.80
2018-04-23T17:56:12.173Z,9.13
2018-04-23T17:56:43.495Z,11.00
2018-04-23T17:57:14.712Z,9.83
2018-04-23T17:57:45.926Z,8.50
2018-04-23T17:58:17.172Z,10.10
2018-04-23T17:58:48.399Z,10.80
2018-04-23T17:59:20.321Z,6.10
2018-04-23T17:59:51.563Z,8.30
2018-04-23T18:00:22.774Z,10.80
2018-04-23T18:00:53.977Z,11.10
2018-04-23T18:01:25.246Z,8.80
2018-04-23T18:01:56.469Z,10.80
2018-04-23T18:02:27.683Z,8.50
2018-04-23T18:02:58.909Z,10.93
2018-04-23T18:03:30.141Z,8.97
2018-04-23T18:04:01.362Z,11.47
2018-04-23T18:04:33.831Z,14.60
2018-04-23T18:05:05.132Z,11.70
2018-04-23T18:05:36.420Z,6.77
2018-04-23T18:06:07.640Z,11.17
2018-04-23T18:06:38.893Z,8.53
2018-04-23T18:07:10.124Z,10.03
2018-04-23T18:07:41.771Z,9.60
2018-04-23T18:08:12.977Z,12.00
2018-04-23T18:08:44.205Z,10.57
2018-04-23T18:09:15.507Z,8.30
2018-04-23T18:09:46.729Z,13.53
2018-04-23T18:10:17.949Z,15.03
2018-04-23T18:10:49.168Z,7.03
2018-04-23T18:11:20.440Z,12.07
2018-04-23T18:11:51.680Z,12.63
2018-04-23T18:12:22.905Z,11.87
2018-04-23T18:12:54.116Z,9.57
2018-04-23T18:13:25.340Z,8.57
2018-04-23T18:13:56.580Z,10.03
2018-04-23T18:14:27.841Z,14.10
2018-04-23T18:14:59.047Z,9.87
2018-04-23T18:15:30.379Z,12.80
2018-04-23T18:16:01.626Z,10.87
2018-04-23T18:16:32.841Z,10.37
2018-04-23T18:17:04.099Z,7.67
2018-04-23T18:17:35.356Z,12.10
2018-04-23T18:18:06.603Z,11.60
2018-04-23T18:18:38.958Z,9.90
2018-04-23T18:19:10.161Z,9.67
2018-04-23T18:19:41.366Z,9.43
2018-04-23T18:20:12.626Z,8.90
2018-04-23T18:20:43.836Z,12.30
2018-04-23T18:21:15.059Z,12.90
2018-04-23T18:21:46.327Z,10.97
2018-04-23T18:22:17.568Z,13.33
2018-04-23T18:22:48.783Z,9.60
2018-04-23T18:23:20.026Z,12.17
2018-04-23T18:23:51.285Z,10.77
2018-04-23T18:24:22.522Z,11.60
2018-04-23T18:24:53.754Z,12.43
2018-04-23T18:25:24.976Z,12.67
2018-04-23T18:25:56.161Z,10.67
2018-04-23T18:26:27.388Z,12.40
2018-04-23T18:26:58.648Z,11.63
2018-04-23T18:27:29.861Z,15.57
2018-04-23T18:28:01.083Z,11.80
2018-04-23T18:28:32.289Z,13.03
2018-04-23T18:29:03.542Z,13.00
2018-04-23T18:29:34.792Z,15.77
2018-04-23T18:30:05.998Z,10.67
2018-04-23T18:30:37.203Z,12.97
2018-04-23T18:31:08.405Z,12.20
2018-04-23T18:31:39.655Z,15.20
2018-04-23T18:32:10.897Z,13.07
2018-04-23T18:32:42.129Z,11.97
2018-04-23T18:33:13.358Z,9.70
2018-04-23T18:33:44.741Z,8.43
2018-04-23T18:34:15.949Z,13.63
2018-04-23T18:34:47.205Z,15.33
2018-04-23T18:35:18.428Z,9.10
2018-04-23T18:35:49.698Z,12.20
2018-04-23T18:36:21.003Z,13.40
2018-04-23T18:36:52.238Z,12.63
2018-04-23T18:37:25.639Z,11.03
2018-04-23T18:37:56.866Z,12.47
2018-04-23T18:38:28.090Z,13.67
2018-04-23T18:38:59.291Z,14.97
2018-04-23T18:39:30.516Z,13.70
2018-04-23T18:40:01.763Z,11.37
2018-04-23T18:40:33.747Z,11.27
2018-04-23T18:41:04.959Z,10.13
2018-04-23T18:41:36.253Z,9.87
2018-04-23T18:42:07.493Z,7.67
2018-04-23T18:42:38.708Z,7.97
2018-04-23T18:43:09.991Z,8.93
2018-04-23T18:43:41.190Z,8.23
2018-04-23T18:44:12.407Z,7.70
2018-04-23T18:44:43.613Z,9.90
2018-04-23T18:45:14.834Z,11.77
2018-04-23T18:45:47.023Z,7.63
2018-04-23T18:46:18.220Z,7.40
2018-04-23T18:46:49.487Z,6.77
2018-04-23T18:47:21.317Z,9.20
2018-04-23T18:47:52.860Z,8.97
2018-04-23T18:48:24.109Z,7.50
2018-04-23T18:48:55.334Z,8.23
2018-04-23T18:49:26.557Z,10.23
2018-04-23T18:49:57.812Z,8.87
2018-04-23T18:50:29.024Z,11.50
2018-04-23T18:51:00.300Z,9.83
2018-04-23T18:51:31.508Z,9.83
2018-04-23T18:52:02.728Z,13.00
2018-04-23T18:52:34.123Z,8.87
2018-04-23T18:53:05.853Z,9.00
2018-04-23T18:53:37.058Z,8.70
2018-04-23T18:54:08.264Z,7.87
2018-04-23T18:54:39.873Z,8.03
2018-04-23T18:55:11.248Z,9.97
2018-04-23T18:55:42.456Z,10.67
2018-04-23T18:56:13.670Z,9.90
2018-04-23T18:56:44.898Z,11.40
2018-04-23T18:57:16.104Z,8.30
2018-04-23T18:57:47.334Z,10.53
2018-04-23T18:58:18.642Z,9.43
2018-04-23T18:58:50.705Z,8.33
2018-04-23T18:59:21.920Z,9.27
2018-04-23T18:59:53.137Z,8.20
2018-04-23T19:00:24.349Z,8.10
2018-04-23T19:00:56.229Z,7.37
2018-04-23T19:01:27.485Z,9.10
2018-04-23T19:01:59.134Z,10.17
2018-04-23T19:02:30.405Z,9.13
2018-04-23T19:03:01.598Z,12.73
2018-04-23T19:03:32.807Z,7.40
2018-04-23T19:04:04.033Z,6.70
2018-04-23T19:04:35.285Z,8.77
2018-04-23T19:05:06.505Z,6.80
2018-04-23T19:05:37.745Z,7.67
2018-04-23T19:06:08.963Z,7.33
2018-04-23T19:06:40.172Z,9.10
2018-04-23T19:07:11.449Z,8.80
2018-04-23T19:07:42.664Z,8.90
2018-04-23T19:08:13.879Z,7.43
2018-04-23T19:08:45.136Z,7.40
2018-04-23T19:09:16.369Z,8.93
2018-04-23T19:09:47.606Z,7.80
2018-04-23T19:10:18.822Z,7.30
2018-04-23T19:10:50.042Z,8.70
2018-04-23T19:11:21.271Z,10.83
2018-04-23T19:11:52.480Z,10.77
2018-04-23T19:12:23.741Z,9.33
2018-04-23T19:12:54.949Z,8.70
2018-04-23T19:13:26.187Z,9.87
2018-04-23T19:13:57.397Z,8.90
2018-04-23T19:14:28.620Z,8.37
2018-04-23T19:14:59.960Z,9.50
2018-04-23T19:15:31.191Z,5.93
2018-04-23T19:16:02.452Z,7.77
2018-04-23T19:16:33.703Z,7.23
2018-04-23T19:17:04.912Z,8.43
2018-04-23T19:17:36.122Z,7.27
2018-04-23T19:18:07.329Z,7.50
2018-04-23T19:18:38.531Z,12.97
2018-04-23T19:19:09.745Z,12.63
2018-04-23T19:19:40.960Z,12.73
2018-04-23T19:20:12.201Z,7.77
2018-04-23T19:20:43.429Z,11.00
2018-04-23T19:21:14.658Z,9.57
2018-04-23T19:21:46.236Z,8.47
2018-04-23T19:22:17.410Z,8.37
2018-04-23T19:22:48.629Z,8.47
2018-04-23T19:23:19.846Z,9.97
2018-04-23T19:23:51.058Z,9.30
2018-04-23T19:24:22.261Z,9.97
2018-04-23T19:24:54.331Z,6.87
2018-04-23T19:25:25.536Z,9.30
2018-04-23T19:25:56.789Z,8.53
2018-04-23T19:26:28.008Z,7.97
2018-04-23T19:26:59.229Z,7.63
2018-04-23T19:27:30.460Z,7.90
2018-04-23T19:28:01.668Z,8.13
2018-04-23T19:28:32.875Z,8.13
2018-04-23T19:29:04.102Z,6.67
2018-04-23T19:29:35.361Z,8.60
2018-04-23T19:30:06.599Z,11.67
2018-04-23T19:30:37.801Z,7.40
2018-04-23T19:31:08.996Z,9.27
2018-04-23T19:31:40.210Z,6.30
2018-04-23T19:32:11.456Z,8.00
2018-04-23T19:32:43.322Z,7.70
2018-04-23T19:33:14.704Z,9.23
2018-04-23T19:33:45.917Z,9.00
2018-04-23T19:34:17.140Z,8.03
2018-04-23T19:34:51.421Z,9.07
2018-04-23T19:35:22.742Z,7.87
2018-04-23T19:35:53.986Z,12.40
2018-04-23T19:36:25.329Z,9.43
2018-04-23T19:36:56.566Z,8.67
2018-04-23T19:37:27.774Z,8.77
2018-04-23T19:37:59.027Z,8.83
2018-04-23T19:38:30.273Z,10.87
2018-04-23T19:39:01.523Z,9.00
2018-04-23T19:39:32.734Z,10.10
2018-04-23T19:40:04.010Z,9.57
2018-04-23T19:40:35.272Z,9.10
2018-04-23T19:41:06.482Z,9.57
2018-04-23T19:41:37.719Z,7.83
2018-04-23T19:42:08.925Z,9.47
2018-04-23T19:42:40.157Z,8.37
2018-04-23T19:43:11.393Z,10.17
2018-04-23T19:43:42.618Z,7.93
2018-04-23T19:44:13.880Z,6.30
2018-04-23T19:44:45.133Z,6.10
2018-04-23T19:45:16.336Z,11.17
2018-04-23T19:45:47.628Z,7.30
2018-04-23T19:46:18.937Z,9.50
2018-04-23T19:46:50.119Z,8.80
2018-04-23T19:47:21.306Z,8.53
2018-04-23T19:47:52.505Z,9.57
2018-04-23T19:48:23.708Z,11.63
2018-04-23T19:48:55.543Z,8.23
2018-04-23T19:49:26.723Z,10.53
2018-04-23T19:49:57.923Z,11.10
2018-04-23T19:50:29.168Z,9.13
2018-04-23T19:51:00.427Z,10.83
2018-04-23T19:51:31.651Z,7.27
2018-04-23T19:52:02.947Z,8.67
2018-04-23T19:52:34.221Z,11.07
2018-04-23T19:53:05.495Z,7.87
2018-04-23T19:53:36.857Z,7.13
2018-04-23T19:54:08.070Z,9.63
2018-04-23T19:54:39.295Z,10.23
2018-04-23T19:55:10.687Z,8.93
2018-04-23T19:55:41.871Z,8.77
2018-04-23T19:56:13.154Z,9.97
2018-04-23T19:56:44.371Z,7.93
2018-04-23T19:57:15.610Z,8.10
2018-04-23T19:57:46.817Z,8.77
2018-04-23T19:58:18.025Z,8.83
2018-04-23T19:58:49.306Z,9.70
2018-04-23T19:59:20.512Z,7.63
2018-04-23T19:59:51.713Z,7.47
2018-04-23T20:00:22.947Z,10.30
2018-04-23T20:00:54.148Z,8.77
2018-04-23T20:01:25.417Z,6.63
2018-04-23T20:01:56.647Z,8.17
2018-04-23T20:02:27.857Z,8.17
2018-04-23T20:02:59.083Z,8.73
2018-04-23T20:03:30.341Z,12.97
2018-04-23T20:04:01.591Z,8.93
2018-04-23T20:04:32.798Z,7.43